Terminal Aerodrome Forecast
Issued by NWS

Home | Current Version | Previous Version | Text Only | Print | Product List | Glossary On
Versions: 1 2 3 4 5 6 7 8 9 10 11 12 13 14 15 16 17
348
FTUS43 KAPX 221720
TAFAPN
TAF
KAPN 221720Z 2218/2318 11007KT P6SM VCSH SCT040 OVC080
     FM230100 VRB03KT P6SM VCSH SCT025 OVC040
     FM231500 12007KT P6SM -SHRA SCT015 OVC025=

USA.gov is the U.S. government's official web portal to all federal, state and local government web resources and services.